UA-0038 weather

Kiev West
Kiev, Kiev, Ukraine

Public forecast

Using degrees Celsius for public forecast. Weather courtesy of forecast.io.

METAR (pilot weather report)

Closest report is Kiev Zhuliany International Airport, 6.1 nm (11.3 km) ESE. Retrieved 2019/03/26 03:30 UTC (13 minutes ago):

UKKK 260330Z 25002MPS 9000 NSC 00/M01 Q1009 R26/70D NOSIG

TAF (pilot weather forecast)

Forecast is more than 12 hours old.

Closest forecast is Kiev Zhuliany International Airport, 6.1 nm (11.3 km) ESE. Retrieved 2019/03/25 00:15 UTC (1 day ago):

TAF TAF UKKK 252303Z 2600/2624 27003G08MPS 6000 BKN015 TX08/2612Z TN00/2604Z TEMPO 2600/2606 24006G12MPS 1000 -SHRASN BR BKN005 SCT012CB BECMG 2606/2608 29006G12MPS TEMPO 2608/2616 32009G14MPS 2100 -SHRA SCT007 SCT015CB BECMG 2616/2618 27004G09MPS BKN007 TEMPO 2618/2624 22006G12MPS 1000 -SHRASN BR BKN004 SCT012CB